• Join FlightAware (Why Join?)
  • Login
  • US Flag 
06:30AM EDT


 

Airport Tracker/Info


-or-


 

Live Flight TrackerFlight Track Log ✈ N510SR ✈ 25-Apr-2013 ✈ KTEB - KFLL

Flight Track Log - Related Links

Times and Time Zones

All times are in EDT time to prevent confusion due to time zone crossing. See the N510SR flight status page for this flight to view local times or setup timezone preferences in your user account.

Time Position Orientation Groundspeed Altitude Reporting Facility
EDT Latitude Longitude Course Direction KTS MPH feet Rate Location/Type
03:52PM 40.8167 -74.1333 252° West 206 237 1,500  Level New York TRACON
03:53PM 40.8000 -74.2000 252° West 253 291 3,500 2,220 Climbing New York TRACON
03:54PM 40.7333 -74.2333 201° Southwest 249 287 6,000 2,100 Climbing New York TRACON
03:55PM 40.6500 -74.2500 189° South 277 319 7,700 1,920 Climbing New York TRACON
03:57PM 40.5467 -74.3597 219° Southwest 288 331 12,000 2,040 Climbing New York Center
03:58PM 40.5025 -74.4419 235° Southwest 282 325 14,000 1,380 Climbing New York Center
03:59PM 40.4306 -74.4764 200° South 259 298 14,900 960 Climbing New York Center
04:00PM 40.3808 -74.3947 129° Southeast 232 267 16,000 1,020 Climbing New York Center
04:01PM 40.3197 -74.2853 126° Southeast 278 320 17,000 480 Climbing New York Center
04:02PM 40.2572 -74.2086 137° Southeast 323 372 17,000  Level New York Center
04:03PM 40.1853 -74.1047 132° Southeast 355 409 17,000 1,020 Level New York Center
04:04PM 40.1075 -74.1281 193° South 285 328 19,100 2,640 Climbing New York Center
04:04PM 40.0819 -74.1597 223° Southwest 263 303 20,700 2,640 Climbing Washington Center
04:06PM 39.9402 -74.2331 218° Southwest  Level Estimated
04:06PM 39.9525 -74.3031 218° Southwest 287 330 25,400  Level Washington Center
04:07PM 39.8822 -74.3694 216° Southwest 305 351 27,500 1,260 Climbing Washington Center
04:08PM 39.8100 -74.4489 220° Southwest 323 372 28,000 240 Climbing Washington Center
04:09PM 39.7339 -74.5419 223° Southwest 356 410 28,000 1,020 Level Washington Center
04:10PM 39.6617 -74.6372 225° Southwest 367 422 30,100 2,580 Climbing Washington Center
04:11PM 39.5958 -74.7269 226° Southwest 367 422 33,200 2,460 Climbing Washington Center
04:12PM 39.5275 -74.8114 224° Southwest 350 403 35,100 1,620 Climbing Washington Center
04:13PM 39.4614 -74.9008 226° Southwest 345 397 36,500 1,260 Climbing Washington Center
04:14PM 39.3953 -74.9872 225° Southwest 345 397 37,700 1,020 Climbing Washington Center
04:15PM 39.3164 -75.0686 219° Southwest 355 409 38,600 900 Climbing Washington Center
04:16PM 39.2272 -75.1333 209° Southwest 367 422 39,500 900 Climbing Washington Center
04:17PM 39.1272 -75.1822 201° Southwest 378 435 40,500 1,020 Climbing Washington Center
04:18PM 39.0253 -75.2256 198° South 383 441 41,600 960 Climbing Washington Center
04:19PM 38.9275 -75.2686 199° South 388 447 42,500 600 Climbing Washington Center
04:20PM 38.8253 -75.3119 198° South 388 447 42,900 240 Climbing Washington Center
04:21PM 38.7233 -75.3575 199° South 383 441 43,000  Climbing Washington Center
04:22PM 38.6172 -75.4003 197° South 388 447 43,000  Level Washington Center
04:23PM 38.5108 -75.4406 197° South 398 458 43,000  Level Washington Center
04:24PM 38.4025 -75.4964 202° Southwest 404 465 43,000  Level Washington Center
04:25PM 38.2961 -75.5442 199° South 410 472 43,100  Climbing Washington Center
04:26PM 38.1919 -75.6050 205° Southwest 410 472 43,000 -60 Descending Washington Center
04:27PM 38.0856 -75.6736 207° Southwest 416 479 43,000  Level Washington Center
04:28PM 37.9833 -75.7444 209° Southwest 422 486 43,000  Level Washington Center
04:29PM 37.8769 -75.8100 206° Southwest 428 493 43,000  Level Washington Center
04:30PM 37.7725 -75.8756 206° Southwest 433 498 43,000  Level Washington Center
04:31PM 37.6681 -75.9408 206° Southwest 423 487 43,000  Level Washington Center
04:32PM 37.5592 -76.0058 205° Southwest 423 487 43,000  Level Washington Center
04:33PM 37.4547 -76.0681 205° Southwest 423 487 43,000  Level Washington Center
04:34PM 37.3503 -76.1325 206° Southwest 423 487 43,000  Level Washington Center
04:35PM 37.2436 -76.1919 204° Southwest 428 493 43,000  Level Washington Center
04:36PM 37.1389 -76.2511 204° Southwest 422 486 43,000  Level Washington Center
04:37PM 37.0342 -76.3153 206° Southwest 422 486 43,000  Level Washington Center
04:38PM 36.9294 -76.3792 206° Southwest 422 486 43,000  Level Washington Center
04:39PM 36.8247 -76.4431 206° Southwest 422 486 43,000  Level Washington Center
04:40PM 36.7200 -76.5067 206° Southwest 422 486 43,000  Level Washington Center
04:41PM 36.6153 -76.5728 207° Southwest 422 486 43,000  Level Washington Center
04:42PM 36.5189 -76.6308 206° Southwest 428 493 43,000  Level Washington Center
04:43PM 36.4119 -76.6914 205° Southwest 428 493 43,000  Level Washington Center
04:44PM 36.3069 -76.7544 206° Southwest 428 493 43,000  Level Washington Center
04:45PM 36.1978 -76.8147 204° Southwest 428 493 43,000  Level Washington Center
04:46PM 36.0928 -76.8772 206° Southwest 428 493 43,000  Level Washington Center
04:47PM 35.9836 -76.9397 205° Southwest 428 493 43,000  Level Washington Center
04:48PM 35.8767 -76.9994 204° Southwest 428 493 43,000  Level Washington Center
04:49PM 35.7714 -77.0642 207° Southwest 428 493 43,000  Level Washington Center
04:51PM 35.6328 -77.1438 205° Southwest  Level FlightAware Approximate
04:51PM 35.5592 -77.1878 205° Southwest 428 493 43,000  Level Washington Center
04:52PM 35.4519 -77.2519 206° Southwest 428 493 43,000  Level Washington Center
04:53PM 35.3383 -77.3056 201° Southwest 428 493 43,000  Level Washington Center
04:54PM 35.2189 -77.3489 197° South 440 506 43,000  Level Washington Center
04:55PM 35.1014 -77.3894 196° South 446 513 43,000  Level Washington Center
04:56PM 34.9839 -77.4325 197° South 441 507 43,000  Level Washington Center
04:57PM 34.8644 -77.4728 195° South 446 513 43,000  Level Washington Center
04:58PM 34.7361 -77.5256 199° South 446 513 43,000  Level Washington Center
04:59PM 34.6144 -77.5681 196° South 446 513 43,000  Level Washington Center
05:00PM 34.4928 -77.6103 196° South 446 513 43,000  Level Washington Center
05:01PM 34.3731 -77.6553 197° South 451 519 43,000  Level Washington Center
05:02PM 34.2556 -77.6975 197° South 451 519 43,000  Level Washington Center
05:04PM 34.0206 -77.7742 195° South 463 533 43,000  Level Jacksonville Center
05:06PM 33.8747 -77.8082 191° South  Level FlightAware Approximate
05:06PM 33.7800 -77.8631 191° South 451 519 43,100  Level Jacksonville Center
05:07PM 33.6442 -77.9083 196° South 451 519 43,000 -60 Descending Jacksonville Center
05:08PM 33.5247 -77.9497 196° South 451 519 43,000  Level Jacksonville Center
05:09PM 33.4011 -77.9939 197° South 451 519 43,000  Level Jacksonville Center
05:10PM 33.2756 -78.0356 196° South 451 519 43,000  Level Jacksonville Center
05:11PM 33.1519 -78.0772 196° South 457 526 43,000  Level Jacksonville Center
05:12PM 33.0283 -78.1208 196° South 457 526 43,000  Level Jacksonville Center
05:13PM 32.9025 -78.1622 195° South 462 532 43,000  Level Jacksonville Center
05:14PM 32.7789 -78.2058 197° South 467 537 43,000  Level Jacksonville Center
05:15PM 32.6533 -78.2469 195° South 467 537 43,000  Level Jacksonville Center
05:16PM 32.5294 -78.2900 196° South 467 537 43,000  Level Jacksonville Center
05:17PM 32.4036 -78.3308 195° South 467 537 43,000  Level Jacksonville Center
05:18PM 32.2803 -78.3789 198° South 472 543 43,000  Level Jacksonville Center
05:19PM 32.1564 -78.4217 196° South 467 537 43,000  Level Jacksonville Center
05:20PM 32.0328 -78.4622 196° South 467 537 43,000  Level Jacksonville Center
05:21PM 31.9069 -78.5047 196° South 467 537 43,000  Level Jacksonville Center
05:22PM 31.7850 -78.5447 196° South 467 537 43,000  Level Jacksonville Center
05:23PM 31.6614 -78.5872 196° South 467 537 43,000  Level Jacksonville Center
05:24PM 31.5375 -78.6294 196° South 467 537 43,000  Level Jacksonville Center
05:25PM 31.4175 -78.6667 195° South 462 532 43,000  Level Jacksonville Center
05:26PM 31.2939 -78.7086 196° South 458 527 43,000  Level Jacksonville Center
05:27PM 31.1719 -78.7506 196° South 464 534 43,000  Level Jacksonville Center
05:28PM 31.0503 -78.7922 196° South 459 528 43,000  Level Jacksonville Center
05:29PM 30.9406 -78.8261 195° South 458 527 43,000  Level Jacksonville Center
05:30PM 30.8125 -78.8656 195° South 466 536 43,000  Level Jacksonville Center
05:31PM 30.6906 -78.9069 196° South 466 536 43,000  Level Jacksonville Center
05:32PM 30.5644 -78.9483 196° South 466 536 43,000  Level Jacksonville Center
05:33PM 30.4458 -78.9869 196° South 456 525 43,000  Level Miami Center
05:34PM 30.3161 -79.0206 193° South 455 524 43,000  Level Miami Center
05:36PM 30.0606 -79.0897 193° South 474 545 43,000  Level Miami Center
05:37PM 29.9369 -79.1325 197° South 474 545 43,000  Level Miami Center
05:38PM 29.8072 -79.1608 191° South 474 545 43,000  Level Miami Center
05:39PM 29.6775 -79.1939 192° South 474 545 43,000  Level Miami Center
05:40PM 29.5497 -79.2247 192° South 474 545 43,000  Level Miami Center
05:41PM 29.4219 -79.2575 193° South 474 545 43,000  Level Miami Center
05:42PM 29.2919 -79.2903 192° South 474 545 43,000  Level Miami Center
05:43PM 29.1642 -79.3208 192° South 468 539 43,000  Level Miami Center
05:44PM 29.0281 -79.3581 193° South 468 539 43,000  Level Miami Center
05:45PM 28.8961 -79.3861 191° South 473 544 43,100  Climbing Miami Center
05:46PM 28.7703 -79.4186 193° South 473 544 43,000  Descending Miami Center
05:47PM 28.6425 -79.4511 193° South 473 544 43,100  Climbing Miami Center
05:48PM 28.5125 -79.4861 193° South 473 544 43,000  Descending Miami Center
05:49PM 28.3825 -79.5158 191° South 473 544 43,100 -240 Climbing Miami Center
05:50PM 28.2483 -79.5506 193° South 478 550 42,600 -1,560 Descending Miami Center
05:51PM 28.1183 -79.5803 191° South 478 550 40,000 -2,640 Descending Miami Center
05:52PM 27.9842 -79.6125 192° South 488 562 37,400 -2,700 Descending Miami Center
05:53PM 27.8497 -79.6467 193° South 488 562 34,700 -2,700 Descending Miami Center
05:54PM 27.7133 -79.6811 193° South 493 567 32,100 -2,640 Descending Miami Center
05:55PM 27.5897 -79.7083 191° South 504 580 29,500 -2,580 Descending Miami Center
05:56PM 27.4575 -79.7425 193° South 498 573 27,000 -2,700 Descending Miami Center
05:57PM 27.3153 -79.7553 185° South 480 552 24,200 -2,520 Descending Miami Center
05:58PM 27.1922 -79.7453 176° South 459 528 22,000 -2,220 Descending Miami Center
05:59PM 27.0739 -79.7097 165° South 445 512 19,800 -2,100 Descending Miami Center
06:00PM 26.9786 -79.6769 163° South 413 475 17,800 -2,400 Descending Miami Center
06:01PM 26.8619 -79.6533 170° South 396 456 15,100 -2,460 Descending Miami Center
06:02PM 26.7633 -79.6789 193° South 365 420 12,900 -2,160 Descending Miami Center
06:03PM 26.6769 -79.7186 202° Southwest 353 406 11,100 -1,680 Descending Miami Center
06:04PM 26.5672 -79.7742 204° Southwest 354 407 9,400 -1,200 Descending Miami Center
06:05PM 26.4997 -79.8025 201° Southwest 359 413 8,600 -780 Descending Miami Center
06:06PM 26.4050 -79.8489 204° Southwest 354 407 8,000 -300 Descending Miami Center
06:07PM 26.3369 -79.9050 216° Southwest 343 395 8,000 -420 Level Miami Center
06:08PM 26.2667 -79.9706 220° Southwest 312 359 7,200 -540 Descending Miami Center
06:09PM 26.2153 -80.0203 221° Southwest 281 323 7,000 -120 Descending Miami Center
06:10PM 26.1764 -80.0817 235° Southwest 258 297 7,000  Level Miami Center
06:11PM 26.1656 -80.1067 244° Southwest 247 284 7,000 -600 Level Miami Center
06:11PM 26.1539 -80.1528 254° West 245 282 6,400 -1,020 Descending Miami Center
06:11PM 26.1514 -80.1711 261° West 234 269 6,100 -1,620 Descending Miami Center
06:12PM 26.1522 -80.2244 271° West 235 270 4,800 -1,800 Descending Miami Center
06:12PM 26.1497 -80.2475 263° West 234 269 4,300 -660 Descending Miami Center
06:14PM 26.1500 -80.3261 270° West 234 269 3,900 -600 Descending Miami Center
06:15PM 26.1172 -80.3808 236° Southwest 229 264 3,100 -720 Descending Miami Center
06:16PM 26.0808 -80.3358 132° Southeast 170 196 2,400 -540 Descending Miami Center
06:17PM 26.0736 -80.2892 100° East 169 194 2,000 -660 Descending Miami Center
06:18PM 26.0750 -80.2244 89° East 164 189 1,000 -840 Descending Miami Center
06:19PM 26.0739 -80.1875 92° East 142 163 400 -780 Descending Miami Center
06:21PM 26.0667 -80.1500 103° East  Level FlightAware Approximate